sensor_id;sensor_type;location;lat;lon;timestamp;P1;durP1;ratioP1;P2;durP2;ratioP2
8397;SDS011;4236;54.504;9.588;2023-03-31T00:00:50;61.90;;;46.27;;
8397;SDS011;4236;54.504;9.588;2023-03-31T00:03:19;62.70;;;47.63;;
8397;SDS011;4236;54.504;9.588;2023-03-31T00:05:49;72.80;;;50.70;;
8397;SDS011;4236;54.504;9.588;2023-03-31T00:08:23;81.60;;;47.67;;
8397;SDS011;4236;54.504;9.588;2023-03-31T00:10:57;68.23;;;49.50;;
8397;SDS011;4236;54.504;9.588;2023-03-31T00:13:27;59.30;;;48.90;;
8397;SDS011;4236;54.504;9.588;2023-03-31T00:15:56;71.77;;;48.10;;
8397;SDS011;4236;54.504;9.588;2023-03-31T00:18:25;82.17;;;47.33;;
8397;SDS011;4236;54.504;9.588;2023-03-31T00:20:53;81.27;;;48.00;;
8397;SDS011;4236;54.504;9.588;2023-03-31T00:23:24;58.10;;;45.60;;
8397;SDS011;4236;54.504;9.588;2023-03-31T00:25:54;55.50;;;46.13;;
8397;SDS011;4236;54.504;9.588;2023-03-31T00:28:22;57.30;;;45.30;;
8397;SDS011;4236;54.504;9.588;2023-03-31T00:30:51;68.00;;;47.00;;
8397;SDS011;4236;54.504;9.588;2023-03-31T00:33:18;65.10;;;46.80;;
8397;SDS011;4236;54.504;9.588;2023-03-31T00:35:49;53.43;;;45.07;;
8397;SDS011;4236;54.504;9.588;2023-03-31T00:38:17;68.37;;;45.83;;
8397;SDS011;4236;54.504;9.588;2023-03-31T00:40:47;69.27;;;48.03;;
8397;SDS011;4236;54.504;9.588;2023-03-31T00:43:28;64.50;;;46.07;;
8397;SDS011;4236;54.504;9.588;2023-03-31T00:46:01;59.50;;;45.47;;
8397;SDS011;4236;54.504;9.588;2023-03-31T00:48:34;66.13;;;47.30;;
8397;SDS011;4236;54.504;9.588;2023-03-31T00:51:04;53.40;;;45.60;;
8397;SDS011;4236;54.504;9.588;2023-03-31T00:53:33;62.40;;;50.57;;
8397;SDS011;4236;54.504;9.588;2023-03-31T00:56:05;68.23;;;47.87;;
8397;SDS011;4236;54.504;9.588;2023-03-31T00:58:35;60.50;;;47.93;;
8397;SDS011;4236;54.504;9.588;2023-03-31T01:01:11;67.97;;;47.30;;
8397;SDS011;4236;54.504;9.588;2023-03-31T01:03:42;52.10;;;46.57;;
8397;SDS011;4236;54.504;9.588;2023-03-31T01:06:12;59.30;;;48.40;;
8397;SDS011;4236;54.504;9.588;2023-03-31T01:08:42;59.13;;;45.73;;
8397;SDS011;4236;54.504;9.588;2023-03-31T01:11:11;54.20;;;48.40;;
8397;SDS011;4236;54.504;9.588;2023-03-31T01:13:41;57.63;;;47.73;;
8397;SDS011;4236;54.504;9.588;2023-03-31T01:16:12;56.20;;;47.33;;
8397;SDS011;4236;54.504;9.588;2023-03-31T01:18:40;57.50;;;46.53;;
8397;SDS011;4236;54.504;9.588;2023-03-31T01:21:20;55.37;;;46.77;;
8397;SDS011;4236;54.504;9.588;2023-03-31T01:24:36;53.50;;;47.77;;
8397;SDS011;4236;54.504;9.588;2023-03-31T01:27:36;64.87;;;49.20;;
8397;SDS011;4236;54.504;9.588;2023-03-31T01:30:26;56.20;;;50.10;;
8397;SDS011;4236;54.504;9.588;2023-03-31T01:33:15;61.53;;;49.03;;
8397;SDS011;4236;54.504;9.588;2023-03-31T01:36:13;56.43;;;50.43;;
8397;SDS011;4236;54.504;9.588;2023-03-31T01:38:55;62.67;;;54.50;;
8397;SDS011;4236;54.504;9.588;2023-03-31T01:41:49;56.50;;;51.13;;
8397;SDS011;4236;54.504;9.588;2023-03-31T01:44:26;57.37;;;52.10;;
8397;SDS011;4236;54.504;9.588;2023-03-31T01:46:59;60.37;;;54.77;;
8397;SDS011;4236;54.504;9.588;2023-03-31T01:49:33;58.50;;;52.43;;
8397;SDS011;4236;54.504;9.588;2023-03-31T01:52:09;57.13;;;50.90;;
8397;SDS011;4236;54.504;9.588;2023-03-31T01:54:46;60.83;;;54.30;;
8397;SDS011;4236;54.504;9.588;2023-03-31T01:57:19;59.27;;;53.13;;
8397;SDS011;4236;54.504;9.588;2023-03-31T01:59:55;63.03;;;50.57;;
8397;SDS011;4236;54.504;9.588;2023-03-31T02:02:31;63.10;;;51.80;;
8397;SDS011;4236;54.504;9.588;2023-03-31T02:05:05;59.73;;;53.47;;
8397;SDS011;4236;54.504;9.588;2023-03-31T02:07:38;58.80;;;52.43;;
8397;SDS011;4236;54.504;9.588;2023-03-31T02:10:09;59.83;;;50.67;;
8397;SDS011;4236;54.504;9.588;2023-03-31T02:12:41;57.50;;;51.80;;
8397;SDS011;4236;54.504;9.588;2023-03-31T02:15:11;58.53;;;52.47;;
8397;SDS011;4236;54.504;9.588;2023-03-31T02:17:45;57.80;;;52.30;;
8397;SDS011;4236;54.504;9.588;2023-03-31T02:20:16;65.53;;;51.83;;
8397;SDS011;4236;54.504;9.588;2023-03-31T02:22:47;58.10;;;51.73;;
8397;SDS011;4236;54.504;9.588;2023-03-31T02:25:20;74.20;;;53.67;;
8397;SDS011;4236;54.504;9.588;2023-03-31T02:27:52;60.50;;;53.70;;
8397;SDS011;4236;54.504;9.588;2023-03-31T02:30:23;62.80;;;53.13;;
8397;SDS011;4236;54.504;9.588;2023-03-31T02:32:55;70.63;;;54.33;;
8397;SDS011;4236;54.504;9.588;2023-03-31T02:35:25;58.93;;;52.70;;
8397;SDS011;4236;54.504;9.588;2023-03-31T02:37:52;80.10;;;53.10;;
8397;SDS011;4236;54.504;9.588;2023-03-31T02:40:21;57.93;;;52.20;;
8397;SDS011;4236;54.504;9.588;2023-03-31T02:42:54;57.40;;;52.00;;
8397;SDS011;4236;54.504;9.588;2023-03-31T02:45:41;55.83;;;50.53;;
8397;SDS011;4236;54.504;9.588;2023-03-31T02:48:12;58.40;;;52.73;;
8397;SDS011;4236;54.504;9.588;2023-03-31T02:50:52;57.97;;;51.67;;
8397;SDS011;4236;54.504;9.588;2023-03-31T02:53:30;66.40;;;52.87;;
8397;SDS011;4236;54.504;9.588;2023-03-31T02:56:13;59.30;;;52.57;;
8397;SDS011;4236;54.504;9.588;2023-03-31T02:58:58;55.97;;;50.17;;
8397;SDS011;4236;54.504;9.588;2023-03-31T03:01:41;55.07;;;48.97;;
8397;SDS011;4236;54.504;9.588;2023-03-31T03:04:22;53.37;;;48.53;;
8397;SDS011;4236;54.504;9.588;2023-03-31T03:07:03;55.07;;;49.70;;
8397;SDS011;4236;54.504;9.588;2023-03-31T03:09:42;61.90;;;50.10;;
8397;SDS011;4236;54.504;9.588;2023-03-31T03:12:20;54.17;;;48.33;;
8397;SDS011;4236;54.504;9.588;2023-03-31T03:14:54;55.80;;;49.70;;
8397;SDS011;4236;54.504;9.588;2023-03-31T03:17:27;59.53;;;48.70;;
8397;SDS011;4236;54.504;9.588;2023-03-31T03:20:00;55.10;;;49.20;;
8397;SDS011;4236;54.504;9.588;2023-03-31T03:22:33;54.53;;;48.90;;
8397;SDS011;4236;54.504;9.588;2023-03-31T03:25:01;59.80;;;47.50;;
8397;SDS011;4236;54.504;9.588;2023-03-31T03:27:29;58.30;;;47.77;;
8397;SDS011;4236;54.504;9.588;2023-03-31T03:29:59;58.27;;;50.53;;
8397;SDS011;4236;54.504;9.588;2023-03-31T03:32:27;60.90;;;50.13;;
8397;SDS011;4236;54.504;9.588;2023-03-31T03:34:55;62.60;;;51.00;;
8397;SDS011;4236;54.504;9.588;2023-03-31T03:37:23;63.47;;;49.70;;
8397;SDS011;4236;54.504;9.588;2023-03-31T03:39:51;61.90;;;46.60;;
8397;SDS011;4236;54.504;9.588;2023-03-31T03:42:18;53.67;;;48.30;;
8397;SDS011;4236;54.504;9.588;2023-03-31T03:44:46;59.63;;;49.57;;
8397;SDS011;4236;54.504;9.588;2023-03-31T03:47:15;54.57;;;46.70;;
8397;SDS011;4236;54.504;9.588;2023-03-31T03:49:43;52.47;;;47.30;;
8397;SDS011;4236;54.504;9.588;2023-03-31T03:52:10;51.63;;;46.00;;
8397;SDS011;4236;54.504;9.588;2023-03-31T03:54:38;50.53;;;45.87;;
8397;SDS011;4236;54.504;9.588;2023-03-31T03:57:05;50.83;;;46.23;;
8397;SDS011;4236;54.504;9.588;2023-03-31T03:59:33;50.23;;;45.87;;
8397;SDS011;4236;54.504;9.588;2023-03-31T04:02:01;52.27;;;46.70;;
8397;SDS011;4236;54.504;9.588;2023-03-31T04:04:30;53.57;;;46.17;;
8397;SDS011;4236;54.504;9.588;2023-03-31T04:06:58;51.50;;;46.30;;
8397;SDS011;4236;54.504;9.588;2023-03-31T04:09:26;53.60;;;47.60;;
8397;SDS011;4236;54.504;9.588;2023-03-31T04:11:53;51.43;;;46.30;;
8397;SDS011;4236;54.504;9.588;2023-03-31T04:14:21;61.13;;;50.13;;
8397;SDS011;4236;54.504;9.588;2023-03-31T04:16:51;51.20;;;46.80;;
8397;SDS011;4236;54.504;9.588;2023-03-31T04:19:21;61.73;;;48.43;;
8397;SDS011;4236;54.504;9.588;2023-03-31T04:21:52;53.07;;;47.53;;
8397;SDS011;4236;54.504;9.588;2023-03-31T04:24:24;53.30;;;48.20;;
8397;SDS011;4236;54.504;9.588;2023-03-31T04:26:56;51.50;;;46.50;;
8397;SDS011;4236;54.504;9.588;2023-03-31T04:29:23;52.73;;;47.17;;
8397;SDS011;4236;54.504;9.588;2023-03-31T04:31:53;54.03;;;48.13;;
8397;SDS011;4236;54.504;9.588;2023-03-31T04:34:24;56.07;;;50.23;;
8397;SDS011;4236;54.504;9.588;2023-03-31T04:37:01;64.33;;;48.83;;
8397;SDS011;4236;54.504;9.588;2023-03-31T04:39:29;52.03;;;47.37;;
8397;SDS011;4236;54.504;9.588;2023-03-31T04:41:57;51.97;;;46.40;;
8397;SDS011;4236;54.504;9.588;2023-03-31T04:44:26;63.50;;;48.17;;
8397;SDS011;4236;54.504;9.588;2023-03-31T04:46:54;54.13;;;48.17;;
8397;SDS011;4236;54.504;9.588;2023-03-31T04:49:24;54.17;;;48.87;;
8397;SDS011;4236;54.504;9.588;2023-03-31T04:51:51;54.60;;;49.60;;
8397;SDS011;4236;54.504;9.588;2023-03-31T04:54:20;55.40;;;49.70;;
8397;SDS011;4236;54.504;9.588;2023-03-31T04:56:48;51.83;;;47.90;;
8397;SDS011;4236;54.504;9.588;2023-03-31T04:59:16;54.37;;;48.60;;
8397;SDS011;4236;54.504;9.588;2023-03-31T05:01:43;59.33;;;48.73;;
8397;SDS011;4236;54.504;9.588;2023-03-31T05:04:11;55.67;;;50.37;;
8397;SDS011;4236;54.504;9.588;2023-03-31T05:06:39;54.97;;;47.90;;
8397;SDS011;4236;54.504;9.588;2023-03-31T05:09:06;60.40;;;51.10;;
8397;SDS011;4236;54.504;9.588;2023-03-31T05:11:36;51.70;;;46.37;;
8397;SDS011;4236;54.504;9.588;2023-03-31T05:14:04;54.43;;;48.53;;
8397;SDS011;4236;54.504;9.588;2023-03-31T05:16:31;53.50;;;48.17;;
8397;SDS011;4236;54.504;9.588;2023-03-31T05:19:00;52.27;;;47.30;;
8397;SDS011;4236;54.504;9.588;2023-03-31T05:21:28;53.80;;;48.13;;
8397;SDS011;4236;54.504;9.588;2023-03-31T05:23:56;53.73;;;48.07;;
8397;SDS011;4236;54.504;9.588;2023-03-31T05:26:24;51.17;;;46.80;;
8397;SDS011;4236;54.504;9.588;2023-03-31T05:28:53;52.67;;;47.30;;
8397;SDS011;4236;54.504;9.588;2023-03-31T05:31:21;51.87;;;47.40;;
8397;SDS011;4236;54.504;9.588;2023-03-31T05:33:49;51.10;;;46.03;;
8397;SDS011;4236;54.504;9.588;2023-03-31T05:36:17;49.87;;;45.30;;
8397;SDS011;4236;54.504;9.588;2023-03-31T05:38:45;51.43;;;46.37;;
8397;SDS011;4236;54.504;9.588;2023-03-31T05:41:13;52.10;;;47.03;;
8397;SDS011;4236;54.504;9.588;2023-03-31T05:43:42;52.33;;;47.37;;
8397;SDS011;4236;54.504;9.588;2023-03-31T05:46:11;62.70;;;48.10;;
8397;SDS011;4236;54.504;9.588;2023-03-31T05:48:39;49.80;;;44.70;;
8397;SDS011;4236;54.504;9.588;2023-03-31T05:51:07;51.07;;;46.53;;
8397;SDS011;4236;54.504;9.588;2023-03-31T05:53:35;50.90;;;46.63;;
8397;SDS011;4236;54.504;9.588;2023-03-31T05:56:03;53.90;;;48.77;;
8397;SDS011;4236;54.504;9.588;2023-03-31T05:58:33;50.83;;;46.60;;
8397;SDS011;4236;54.504;9.588;2023-03-31T06:01:02;51.03;;;46.63;;
8397;SDS011;4236;54.504;9.588;2023-03-31T06:03:34;51.40;;;46.37;;
8397;SDS011;4236;54.504;9.588;2023-03-31T06:06:03;51.00;;;45.70;;
8397;SDS011;4236;54.504;9.588;2023-03-31T06:08:33;48.83;;;44.17;;
8397;SDS011;4236;54.504;9.588;2023-03-31T06:11:02;49.43;;;45.17;;
8397;SDS011;4236;54.504;9.588;2023-03-31T06:13:31;48.63;;;44.37;;
8397;SDS011;4236;54.504;9.588;2023-03-31T06:15:59;50.93;;;45.83;;
8397;SDS011;4236;54.504;9.588;2023-03-31T06:18:28;50.73;;;45.87;;
8397;SDS011;4236;54.504;9.588;2023-03-31T06:20:58;49.53;;;45.03;;
8397;SDS011;4236;54.504;9.588;2023-03-31T06:23:26;50.60;;;45.37;;
8397;SDS011;4236;54.504;9.588;2023-03-31T06:25:57;49.87;;;45.60;;
8397;SDS011;4236;54.504;9.588;2023-03-31T06:28:27;50.47;;;45.83;;
8397;SDS011;4236;54.504;9.588;2023-03-31T06:30:58;50.53;;;46.20;;
8397;SDS011;4236;54.504;9.588;2023-03-31T06:33:27;52.20;;;46.53;;
8397;SDS011;4236;54.504;9.588;2023-03-31T06:35:55;50.33;;;45.40;;
8397;SDS011;4236;54.504;9.588;2023-03-31T06:38:26;51.17;;;46.57;;
8397;SDS011;4236;54.504;9.588;2023-03-31T06:40:54;51.30;;;46.60;;
8397;SDS011;4236;54.504;9.588;2023-03-31T06:43:21;48.93;;;44.90;;
8397;SDS011;4236;54.504;9.588;2023-03-31T06:45:51;52.40;;;47.73;;
8397;SDS011;4236;54.504;9.588;2023-03-31T06:48:19;51.37;;;46.40;;
8397;SDS011;4236;54.504;9.588;2023-03-31T06:50:48;50.40;;;45.53;;
8397;SDS011;4236;54.504;9.588;2023-03-31T06:53:16;50.57;;;46.10;;
8397;SDS011;4236;54.504;9.588;2023-03-31T06:55:45;50.07;;;46.10;;
8397;SDS011;4236;54.504;9.588;2023-03-31T06:58:12;50.10;;;45.20;;
8397;SDS011;4236;54.504;9.588;2023-03-31T07:00:40;49.23;;;44.73;;
8397;SDS011;4236;54.504;9.588;2023-03-31T07:03:11;51.13;;;46.60;;
8397;SDS011;4236;54.504;9.588;2023-03-31T07:05:40;48.83;;;44.87;;
8397;SDS011;4236;54.504;9.588;2023-03-31T07:08:07;49.40;;;45.33;;
8397;SDS011;4236;54.504;9.588;2023-03-31T07:10:35;49.03;;;45.30;;
8397;SDS011;4236;54.504;9.588;2023-03-31T07:13:04;51.40;;;46.80;;
8397;SDS011;4236;54.504;9.588;2023-03-31T07:15:32;49.53;;;45.30;;
8397;SDS011;4236;54.504;9.588;2023-03-31T07:18:00;50.43;;;46.43;;
8397;SDS011;4236;54.504;9.588;2023-03-31T07:20:28;51.93;;;47.43;;
8397;SDS011;4236;54.504;9.588;2023-03-31T07:22:57;51.67;;;47.17;;
8397;SDS011;4236;54.504;9.588;2023-03-31T07:25:25;50.53;;;46.33;;
8397;SDS011;4236;54.504;9.588;2023-03-31T07:27:53;52.73;;;48.27;;
8397;SDS011;4236;54.504;9.588;2023-03-31T07:30:22;51.90;;;47.97;;
8397;SDS011;4236;54.504;9.588;2023-03-31T07:32:50;51.57;;;46.97;;
8397;SDS011;4236;54.504;9.588;2023-03-31T07:35:20;48.83;;;45.33;;
8397;SDS011;4236;54.504;9.588;2023-03-31T07:37:49;51.93;;;47.13;;
8397;SDS011;4236;54.504;9.588;2023-03-31T07:40:19;51.10;;;47.30;;
8397;SDS011;4236;54.504;9.588;2023-03-31T07:42:48;51.50;;;47.30;;
8397;SDS011;4236;54.504;9.588;2023-03-31T07:45:17;50.93;;;47.50;;
8397;SDS011;4236;54.504;9.588;2023-03-31T07:47:48;52.40;;;48.87;;
8397;SDS011;4236;54.504;9.588;2023-03-31T07:50:16;53.93;;;49.47;;
8397;SDS011;4236;54.504;9.588;2023-03-31T07:52:44;52.27;;;48.57;;
8397;SDS011;4236;54.504;9.588;2023-03-31T07:55:13;54.43;;;50.00;;
8397;SDS011;4236;54.504;9.588;2023-03-31T07:57:41;53.80;;;49.13;;
8397;SDS011;4236;54.504;9.588;2023-03-31T08:00:12;53.53;;;48.57;;
8397;SDS011;4236;54.504;9.588;2023-03-31T08:02:41;53.70;;;50.00;;
8397;SDS011;4236;54.504;9.588;2023-03-31T08:05:11;52.77;;;49.20;;
8397;SDS011;4236;54.504;9.588;2023-03-31T08:07:41;54.90;;;50.60;;
8397;SDS011;4236;54.504;9.588;2023-03-31T08:10:12;54.80;;;50.43;;
8397;SDS011;4236;54.504;9.588;2023-03-31T08:12:41;53.70;;;49.50;;
8397;SDS011;4236;54.504;9.588;2023-03-31T08:15:09;54.30;;;50.30;;
8397;SDS011;4236;54.504;9.588;2023-03-31T08:17:37;54.83;;;50.67;;
8397;SDS011;4236;54.504;9.588;2023-03-31T08:20:06;53.50;;;49.47;;
8397;SDS011;4236;54.504;9.588;2023-03-31T08:22:37;55.77;;;51.00;;
8397;SDS011;4236;54.504;9.588;2023-03-31T08:25:07;53.27;;;49.17;;
8397;SDS011;4236;54.504;9.588;2023-03-31T08:27:35;53.53;;;48.97;;
8397;SDS011;4236;54.504;9.588;2023-03-31T08:30:05;60.17;;;55.77;;
8397;SDS011;4236;54.504;9.588;2023-03-31T08:32:35;54.17;;;50.10;;
8397;SDS011;4236;54.504;9.588;2023-03-31T08:35:03;54.20;;;49.87;;
8397;SDS011;4236;54.504;9.588;2023-03-31T08:37:32;54.73;;;50.30;;
8397;SDS011;4236;54.504;9.588;2023-03-31T08:40:01;52.50;;;47.80;;
8397;SDS011;4236;54.504;9.588;2023-03-31T08:42:33;52.43;;;49.17;;
8397;SDS011;4236;54.504;9.588;2023-03-31T08:45:05;54.57;;;50.37;;
8397;SDS011;4236;54.504;9.588;2023-03-31T08:47:41;54.40;;;49.70;;
8397;SDS011;4236;54.504;9.588;2023-03-31T08:50:12;52.93;;;48.97;;
8397;SDS011;4236;54.504;9.588;2023-03-31T08:52:44;52.83;;;48.80;;
8397;SDS011;4236;54.504;9.588;2023-03-31T08:55:19;55.60;;;50.20;;
8397;SDS011;4236;54.504;9.588;2023-03-31T08:57:53;53.80;;;49.50;;
8397;SDS011;4236;54.504;9.588;2023-03-31T09:00:26;54.40;;;50.13;;
8397;SDS011;4236;54.504;9.588;2023-03-31T09:03:09;53.53;;;49.57;;
8397;SDS011;4236;54.504;9.588;2023-03-31T09:05:44;52.27;;;47.93;;
8397;SDS011;4236;54.504;9.588;2023-03-31T09:08:33;52.47;;;48.60;;
8397;SDS011;4236;54.504;9.588;2023-03-31T09:11:09;53.70;;;49.50;;
8397;SDS011;4236;54.504;9.588;2023-03-31T09:13:45;52.17;;;48.50;;
8397;SDS011;4236;54.504;9.588;2023-03-31T09:16:32;53.27;;;49.67;;
8397;SDS011;4236;54.504;9.588;2023-03-31T09:19:07;54.73;;;50.27;;
8397;SDS011;4236;54.504;9.588;2023-03-31T09:21:40;54.70;;;50.40;;
8397;SDS011;4236;54.504;9.588;2023-03-31T09:24:11;54.93;;;50.83;;
8397;SDS011;4236;54.504;9.588;2023-03-31T09:26:47;54.03;;;50.13;;
8397;SDS011;4236;54.504;9.588;2023-03-31T09:29:20;54.40;;;49.40;;
8397;SDS011;4236;54.504;9.588;2023-03-31T09:31:55;54.00;;;49.20;;
8397;SDS011;4236;54.504;9.588;2023-03-31T09:34:28;53.17;;;48.90;;
8397;SDS011;4236;54.504;9.588;2023-03-31T09:36:58;53.50;;;49.07;;
8397;SDS011;4236;54.504;9.588;2023-03-31T09:39:26;53.97;;;49.77;;
8397;SDS011;4236;54.504;9.588;2023-03-31T09:41:55;55.47;;;50.77;;
8397;SDS011;4236;54.504;9.588;2023-03-31T09:44:26;54.60;;;50.17;;
8397;SDS011;4236;54.504;9.588;2023-03-31T09:47:03;51.87;;;48.23;;
8397;SDS011;4236;54.504;9.588;2023-03-31T09:49:36;52.60;;;49.27;;
8397;SDS011;4236;54.504;9.588;2023-03-31T09:52:22;53.67;;;49.33;;
8397;SDS011;4236;54.504;9.588;2023-03-31T09:54:57;53.07;;;49.27;;
8397;SDS011;4236;54.504;9.588;2023-03-31T09:57:29;53.50;;;49.60;;
8397;SDS011;4236;54.504;9.588;2023-03-31T10:00:04;54.03;;;49.60;;
8397;SDS011;4236;54.504;9.588;2023-03-31T10:02:40;51.07;;;47.77;;
8397;SDS011;4236;54.504;9.588;2023-03-31T10:05:27;53.27;;;49.17;;
8397;SDS011;4236;54.504;9.588;2023-03-31T10:08:11;50.77;;;47.47;;
8397;SDS011;4236;54.504;9.588;2023-03-31T10:10:47;52.07;;;48.00;;
8397;SDS011;4236;54.504;9.588;2023-03-31T10:13:18;54.87;;;49.77;;
8397;SDS011;4236;54.504;9.588;2023-03-31T10:15:50;50.67;;;47.07;;
8397;SDS011;4236;54.504;9.588;2023-03-31T10:18:19;51.87;;;48.20;;
8397;SDS011;4236;54.504;9.588;2023-03-31T10:20:57;49.33;;;46.20;;
8397;SDS011;4236;54.504;9.588;2023-03-31T10:23:27;49.70;;;45.83;;
8397;SDS011;4236;54.504;9.588;2023-03-31T10:25:57;47.40;;;44.20;;
8397;SDS011;4236;54.504;9.588;2023-03-31T10:28:29;49.60;;;45.73;;
8397;SDS011;4236;54.504;9.588;2023-03-31T10:30:58;43.90;;;41.10;;
8397;SDS011;4236;54.504;9.588;2023-03-31T10:33:28;46.47;;;42.90;;
8397;SDS011;4236;54.504;9.588;2023-03-31T10:36:00;46.47;;;42.63;;
8397;SDS011;4236;54.504;9.588;2023-03-31T10:38:33;45.93;;;43.27;;
8397;SDS011;4236;54.504;9.588;2023-03-31T10:41:05;45.77;;;42.07;;
8397;SDS011;4236;54.504;9.588;2023-03-31T10:43:36;44.37;;;41.90;;
8397;SDS011;4236;54.504;9.588;2023-03-31T10:46:07;45.90;;;42.90;;
8397;SDS011;4236;54.504;9.588;2023-03-31T10:48:36;44.37;;;41.00;;
8397;SDS011;4236;54.504;9.588;2023-03-31T10:51:10;46.57;;;42.90;;
8397;SDS011;4236;54.504;9.588;2023-03-31T10:53:41;46.80;;;43.60;;
8397;SDS011;4236;54.504;9.588;2023-03-31T10:56:19;49.23;;;45.17;;
8397;SDS011;4236;54.504;9.588;2023-03-31T10:59:09;46.03;;;42.93;;
8397;SDS011;4236;54.504;9.588;2023-03-31T11:04:54;47.47;;;43.60;;
8397;SDS011;4236;54.504;9.588;2023-03-31T11:07:36;46.57;;;43.43;;
8397;SDS011;4236;54.504;9.588;2023-03-31T11:10:25;46.87;;;43.67;;
8397;SDS011;4236;54.504;9.588;2023-03-31T11:13:04;43.73;;;40.90;;
8397;SDS011;4236;54.504;9.588;2023-03-31T11:15:39;46.30;;;43.23;;
8397;SDS011;4236;54.504;9.588;2023-03-31T11:18:21;46.17;;;43.37;;
8397;SDS011;4236;54.504;9.588;2023-03-31T11:21:04;47.53;;;44.43;;
8397;SDS011;4236;54.504;9.588;2023-03-31T11:23:44;42.37;;;39.80;;
8397;SDS011;4236;54.504;9.588;2023-03-31T11:26:17;42.77;;;40.57;;
8397;SDS011;4236;54.504;9.588;2023-03-31T11:28:57;42.73;;;40.47;;
8397;SDS011;4236;54.504;9.588;2023-03-31T11:31:44;43.43;;;40.73;;
8397;SDS011;4236;54.504;9.588;2023-03-31T11:34:32;41.43;;;39.33;;
8397;SDS011;4236;54.504;9.588;2023-03-31T11:37:17;39.33;;;37.43;;
8397;SDS011;4236;54.504;9.588;2023-03-31T11:40:00;41.83;;;39.10;;
8397;SDS011;4236;54.504;9.588;2023-03-31T11:42:41;41.80;;;39.07;;
8397;SDS011;4236;54.504;9.588;2023-03-31T11:45:16;40.30;;;38.27;;
8397;SDS011;4236;54.504;9.588;2023-03-31T11:47:50;40.17;;;37.63;;
8397;SDS011;4236;54.504;9.588;2023-03-31T11:50:23;40.87;;;38.77;;
8397;SDS011;4236;54.504;9.588;2023-03-31T11:52:55;38.90;;;36.83;;
8397;SDS011;4236;54.504;9.588;2023-03-31T11:55:27;38.57;;;36.57;;
8397;SDS011;4236;54.504;9.588;2023-03-31T11:57:58;38.73;;;36.70;;
8397;SDS011;4236;54.504;9.588;2023-03-31T12:00:31;39.10;;;37.20;;
8397;SDS011;4236;54.504;9.588;2023-03-31T12:03:07;34.33;;;32.57;;
8397;SDS011;4236;54.504;9.588;2023-03-31T12:05:39;37.60;;;35.30;;
8397;SDS011;4236;54.504;9.588;2023-03-31T12:08:12;34.57;;;32.97;;
8397;SDS011;4236;54.504;9.588;2023-03-31T12:10:44;35.03;;;33.23;;
8397;SDS011;4236;54.504;9.588;2023-03-31T12:13:23;35.20;;;33.60;;
8397;SDS011;4236;54.504;9.588;2023-03-31T12:16:01;36.10;;;34.30;;
8397;SDS011;4236;54.504;9.588;2023-03-31T12:18:35;34.63;;;33.07;;
8397;SDS011;4236;54.504;9.588;2023-03-31T12:21:07;34.47;;;32.97;;
8397;SDS011;4236;54.504;9.588;2023-03-31T12:23:38;35.60;;;33.80;;
8397;SDS011;4236;54.504;9.588;2023-03-31T12:26:12;35.53;;;34.03;;
8397;SDS011;4236;54.504;9.588;2023-03-31T12:28:48;35.60;;;34.10;;
8397;SDS011;4236;54.504;9.588;2023-03-31T12:31:22;31.90;;;30.70;;
8397;SDS011;4236;54.504;9.588;2023-03-31T12:33:54;34.83;;;33.00;;
8397;SDS011;4236;54.504;9.588;2023-03-31T12:36:30;33.57;;;32.17;;
8397;SDS011;4236;54.504;9.588;2023-03-31T12:39:12;34.00;;;32.30;;
8397;SDS011;4236;54.504;9.588;2023-03-31T12:41:57;32.83;;;31.53;;
8397;SDS011;4236;54.504;9.588;2023-03-31T12:44:34;34.07;;;32.47;;
8397;SDS011;4236;54.504;9.588;2023-03-31T12:47:27;32.87;;;31.37;;
8397;SDS011;4236;54.504;9.588;2023-03-31T12:50:15;34.77;;;32.80;;
8397;SDS011;4236;54.504;9.588;2023-03-31T12:52:54;31.27;;;29.87;;
8397;SDS011;4236;54.504;9.588;2023-03-31T12:55:35;34.07;;;31.87;;
8397;SDS011;4236;54.504;9.588;2023-03-31T13:01:08;31.00;;;29.57;;
8397;SDS011;4236;54.504;9.588;2023-03-31T13:03:44;35.10;;;32.90;;
8397;SDS011;4236;54.504;9.588;2023-03-31T13:09:42;32.17;;;30.77;;
8397;SDS011;4236;54.504;9.588;2023-03-31T13:12:15;31.43;;;29.93;;
8397;SDS011;4236;54.504;9.588;2023-03-31T13:14:45;31.03;;;29.50;;
8397;SDS011;4236;54.504;9.588;2023-03-31T13:17:22;28.90;;;27.50;;
8397;SDS011;4236;54.504;9.588;2023-03-31T13:19:52;28.67;;;27.47;;
8397;SDS011;4236;54.504;9.588;2023-03-31T13:22:31;29.70;;;28.30;;
8397;SDS011;4236;54.504;9.588;2023-03-31T13:28:12;31.57;;;29.87;;
8397;SDS011;4236;54.504;9.588;2023-03-31T13:30:56;30.97;;;29.47;;
8397;SDS011;4236;54.504;9.588;2023-03-31T13:36:27;29.73;;;28.33;;
8397;SDS011;4236;54.504;9.588;2023-03-31T13:39:10;31.20;;;29.80;;
8397;SDS011;4236;54.504;9.588;2023-03-31T13:42:00;30.53;;;29.13;;
8397;SDS011;4236;54.504;9.588;2023-03-31T13:44:49;30.07;;;28.77;;
8397;SDS011;4236;54.504;9.588;2023-03-31T13:50:36;30.07;;;28.40;;
8397;SDS011;4236;54.504;9.588;2023-03-31T13:53:16;31.83;;;29.63;;
8397;SDS011;4236;54.504;9.588;2023-03-31T13:55:56;31.03;;;29.13;;
8397;SDS011;4236;54.504;9.588;2023-03-31T13:58:43;30.13;;;28.70;;
8397;SDS011;4236;54.504;9.588;2023-03-31T14:01:33;29.93;;;28.37;;
8397;SDS011;4236;54.504;9.588;2023-03-31T14:04:19;28.43;;;27.23;;
8397;SDS011;4236;54.504;9.588;2023-03-31T14:06:56;30.70;;;29.20;;
8397;SDS011;4236;54.504;9.588;2023-03-31T14:09:28;32.20;;;30.47;;
8397;SDS011;4236;54.504;9.588;2023-03-31T14:11:59;30.80;;;29.40;;
8397;SDS011;4236;54.504;9.588;2023-03-31T14:14:28;30.30;;;29.00;;
8397;SDS011;4236;54.504;9.588;2023-03-31T14:16:58;28.83;;;27.60;;
8397;SDS011;4236;54.504;9.588;2023-03-31T14:19:39;31.80;;;29.90;;
8397;SDS011;4236;54.504;9.588;2023-03-31T14:22:37;28.17;;;26.93;;
8397;SDS011;4236;54.504;9.588;2023-03-31T14:25:14;27.67;;;26.37;;
8397;SDS011;4236;54.504;9.588;2023-03-31T14:27:52;27.50;;;26.20;;
8397;SDS011;4236;54.504;9.588;2023-03-31T14:30:29;26.30;;;25.20;;
8397;SDS011;4236;54.504;9.588;2023-03-31T14:33:12;25.70;;;24.80;;
8397;SDS011;4236;54.504;9.588;2023-03-31T14:35:51;26.03;;;25.03;;
8397;SDS011;4236;54.504;9.588;2023-03-31T14:38:24;26.03;;;25.03;;
8397;SDS011;4236;54.504;9.588;2023-03-31T14:40:55;26.83;;;25.70;;
8397;SDS011;4236;54.504;9.588;2023-03-31T14:43:26;24.30;;;23.40;;
8397;SDS011;4236;54.504;9.588;2023-03-31T14:45:56;25.30;;;24.30;;
8397;SDS011;4236;54.504;9.588;2023-03-31T14:48:27;25.63;;;24.47;;
8397;SDS011;4236;54.504;9.588;2023-03-31T14:50:56;24.90;;;23.90;;
8397;SDS011;4236;54.504;9.588;2023-03-31T14:53:25;24.70;;;23.80;;
8397;SDS011;4236;54.504;9.588;2023-03-31T14:55:55;24.57;;;23.67;;
8397;SDS011;4236;54.504;9.588;2023-03-31T14:58:27;23.53;;;22.63;;
8397;SDS011;4236;54.504;9.588;2023-03-31T15:01:00;24.47;;;23.37;;
8397;SDS011;4236;54.504;9.588;2023-03-31T15:03:31;23.73;;;22.83;;
8397;SDS011;4236;54.504;9.588;2023-03-31T15:06:01;23.67;;;22.77;;
8397;SDS011;4236;54.504;9.588;2023-03-31T15:08:31;24.20;;;23.20;;
8397;SDS011;4236;54.504;9.588;2023-03-31T15:11:02;23.63;;;22.80;;
8397;SDS011;4236;54.504;9.588;2023-03-31T15:13:39;24.60;;;23.70;;
8397;SDS011;4236;54.504;9.588;2023-03-31T15:16:28;25.20;;;24.20;;
8397;SDS011;4236;54.504;9.588;2023-03-31T15:18:59;25.57;;;24.23;;
8397;SDS011;4236;54.504;9.588;2023-03-31T15:21:33;25.23;;;24.33;;
8397;SDS011;4236;54.504;9.588;2023-03-31T15:24:04;25.03;;;23.83;;
8397;SDS011;4236;54.504;9.588;2023-03-31T15:26:33;24.70;;;23.80;;
8397;SDS011;4236;54.504;9.588;2023-03-31T15:29:07;24.20;;;23.27;;
8397;SDS011;4236;54.504;9.588;2023-03-31T15:31:39;23.80;;;22.90;;
8397;SDS011;4236;54.504;9.588;2023-03-31T15:34:12;23.07;;;22.17;;
8397;SDS011;4236;54.504;9.588;2023-03-31T15:36:42;23.80;;;22.60;;
8397;SDS011;4236;54.504;9.588;2023-03-31T15:39:10;23.43;;;22.53;;
8397;SDS011;4236;54.504;9.588;2023-03-31T15:41:39;24.77;;;23.67;;